Time;durP1;ratioP1;P1;durP2;ratioP2;P2;SDS_P1;SDS_P2;PMS_P1;PMS_P2;Temp;Humidity;BMP_temperature;BMP_pressure;BME280_temperature;BME280_humidity;BME280_pressure;Samples;Min_cycle;Max_cycle;Signal;HPM_P1;HPM_P2
2020/12/21 00:01:19;;;;;;;14.75;5.22;;;11.50;62.20;;;;;;5053306;28;20048;-68
2020/12/21 00:03:45;;;;;;;14.23;5.25;;;;;;;;;;5053119;28;20032;-68
2020/12/21 00:06:12;;;;;;;13.77;4.75;;;11.60;62.10;;;;;;5051465;28;20120;-67
2020/12/21 00:08:38;;;;;;;14.13;5.07;;;;;;;;;;5052765;28;20404;-67
2020/12/21 00:11:05;;;;;;;14.68;5.53;;;;;;;;;;5052736;28;20048;-68
2020/12/21 00:13:31;;;;;;;15.98;5.43;;;;;;;;;;5052984;28;20037;-66
2020/12/21 00:15:57;;;;;;;19.90;5.40;;;;;;;;;;5052819;28;20064;-67
2020/12/21 00:18:24;;;;;;;19.17;5.43;;;;;;;;;;5052812;28;20024;-69
2020/12/21 00:20:51;;;;;;;15.85;5.05;;;;;;;;;;5052816;28;20479;-66
2020/12/21 00:23:17;;;;;;;14.18;4.90;;;;;;;;;;5052601;28;20055;-66
2020/12/21 00:25:44;;;;;;;16.90;5.65;;;;;;;;;;5052585;28;20025;-66
2020/12/21 00:28:10;;;;;;;14.88;5.30;;;;;;;;;;5052849;28;20024;-68
2020/12/21 00:30:38;;;;;;;14.15;5.32;;;;;;;;;;5052125;28;20107;-67
2020/12/21 00:33:04;;;;;;;15.55;5.13;;;;;;;;;;5051308;28;20080;-69
2020/12/21 00:35:31;;;;;;;21.60;6.03;;;;;;;;;;5052272;28;20029;-67
2020/12/21 00:37:58;;;;;;;20.42;5.28;;;;;;;;;;5052471;28;20460;-66
2020/12/21 00:40:26;;;;;;;13.88;5.38;;;;;;;;;;5052306;28;20040;-68
2020/12/21 00:42:52;;;;;;;18.75;5.43;;;;;;;;;;5052725;28;20033;-66
2020/12/21 00:45:18;;;;;;;14.57;5.45;;;;;;;;;;5052943;28;20089;-67
2020/12/21 00:47:45;;;;;;;13.68;4.97;;;;;;;;;;5052249;28;20028;-67
2020/12/21 00:50:11;;;;;;;10.48;4.78;;;;;;;;;;5052437;28;20033;-67
2020/12/21 00:52:37;;;;;;;13.52;5.38;;;;;;;;;;5050868;28;20044;-65
2020/12/21 00:55:04;;;;;;;11.68;5.22;;;;;;;;;;5052121;28;20074;-66
2020/12/21 00:57:33;;;;;;;18.30;4.85;;;11.40;61.90;;;;;;5050712;28;20456;-68
2020/12/21 01:00:00;;;;;;;19.98;6.68;;;;;;;;;;5051610;28;20420;-68
2020/12/21 01:02:26;;;;;;;22.13;5.32;;;;;;;;;;5051604;28;20153;-68
2020/12/21 01:04:53;;;;;;;19.75;5.18;;;;;;;;;;5050193;28;20032;-67
2020/12/21 01:07:19;;;;;;;17.73;5.50;;;;;;;;;;5049601;28;20033;-69
2020/12/21 01:09:46;;;;;;;12.70;5.07;;;;;;;;;;5051243;28;20116;-67
2020/12/21 01:12:17;;;;;;;22.00;6.03;;;11.30;62.10;;;;;;5049827;28;20151;-67
2020/12/21 01:14:43;;;;;;;14.55;4.97;;;;;;;;;;5051278;28;20035;-69
2020/12/21 01:17:09;;;;;;;18.67;5.28;;;;;;;;;;5050000;28;20446;-67
2020/12/21 01:19:36;;;;;;;13.70;5.32;;;;;;;;;;5051502;28;20048;-67
2020/12/21 01:22:03;;;;;;;17.90;5.03;;;;;;;;;;5051381;28;20035;-68
2020/12/21 01:24:29;;;;;;;17.67;5.40;;;;;;;;;;5051302;28;20068;-67
2020/12/21 01:26:55;;;;;;;17.98;5.63;;;;;;;;;;5051363;28;20476;-70
2020/12/21 01:29:21;;;;;;;15.82;5.43;;;;;;;;;;5051843;28;20036;-68
2020/12/21 01:31:48;;;;;;;15.27;5.88;;;;;;;;;;5051213;28;20434;-67
2020/12/21 01:34:14;;;;;;;20.60;5.32;;;;;;;;;;5051526;28;20048;-68
2020/12/21 01:36:41;;;;;;;15.23;5.45;;;;;;;;;;5050042;28;20115;-66
2020/12/21 01:39:08;;;;;;;10.82;5.30;;;;;;;;;;5050927;28;20032;-68
2020/12/21 01:41:34;;;;;;;12.88;5.32;;;;;;;;;;5051415;28;20050;-68
2020/12/21 01:44:00;;;;;;;22.02;4.68;;;;;;;;;;5051426;28;20056;-69
2020/12/21 01:46:27;;;;;;;21.65;4.63;;;;;;;;;;5050008;28;20056;-67
2020/12/21 01:48:53;;;;;;;14.43;4.68;;;;;;;;;;5051153;28;20059;-66
2020/12/21 01:51:27;;;;;;;15.88;5.25;;;11.50;61.40;;;;;;5051032;28;20029;-70
2020/12/21 01:53:54;;;;;;;14.25;5.20;;;11.50;61.20;;;;;;5052274;28;20143;-67
2020/12/21 01:56:21;;;;;;;17.23;5.00;;;;;;;;;;5049593;28;20043;-68
2020/12/21 01:58:47;;;;;;;16.33;5.00;;;;;;;;;;5051023;28;20029;-67
2020/12/21 02:01:15;;;;;;;19.63;5.28;;;11.50;61.10;;;;;;5050971;28;20048;-68
2020/12/21 02:03:42;;;;;;;16.35;5.15;;;11.50;61.10;;;;;;5051133;28;20033;-67
2020/12/21 02:06:09;;;;;;;21.55;5.60;;;11.60;60.90;;;;;;5050864;28;20058;-67
2020/12/21 02:08:36;;;;;;;21.60;5.10;;;;;;;;;;5051046;28;20139;-68
2020/12/21 02:11:03;;;;;;;15.10;5.05;;;11.40;61.30;;;;;;5051405;28;20045;-67
2020/12/21 02:13:30;;;;;;;10.82;4.78;;;;;;;;;;5049726;28;20127;-68
2020/12/21 02:15:56;;;;;;;12.05;4.32;;;;;;;;;;5050960;28;20029;-67
2020/12/21 02:18:22;;;;;;;22.75;5.85;;;;;;;;;;5050953;28;20037;-66
2020/12/21 02:20:48;;;;;;;17.48;5.13;;;;;;;;;;5055140;28;20399;-69
2020/12/21 02:23:16;;;;;;;18.60;5.35;;;;;;;;;;5050941;28;20048;-69
2020/12/21 02:25:42;;;;;;;15.88;4.68;;;;;;;;;;5050689;28;20104;-69
2020/12/21 02:28:08;;;;;;;18.23;4.70;;;;;;;;;;5055035;28;20031;-67
2020/12/21 02:30:34;;;;;;;8.85;4.35;;;;;;;;;;5053481;28;20029;-68
2020/12/21 02:33:01;;;;;;;13.60;4.78;;;;;;;;;;5054708;28;20044;-68
2020/12/21 02:35:27;;;;;;;12.55;4.43;;;;;;;;;;5054572;28;20064;-68
2020/12/21 02:37:53;;;;;;;16.48;4.50;;;;;;;;;;5054817;28;20482;-66
2020/12/21 02:40:20;;;;;;;12.27;4.60;;;;;;;;;;5054640;28;20354;-68
2020/12/21 02:42:46;;;;;;;15.23;4.63;;;;;;;;;;5054352;28;20471;-68
2020/12/21 02:45:12;;;;;;;14.52;4.97;;;;;;;;;;5054707;28;20024;-68
2020/12/21 02:47:38;;;;;;;13.75;5.07;;;;;;;;;;5054247;28;20043;-69
2020/12/21 02:50:05;;;;;;;21.70;5.03;;;;;;;;;;5054582;28;20040;-67
2020/12/21 02:52:31;;;;;;;15.63;5.18;;;;;;;;;;5054237;28;20075;-66
2020/12/21 02:54:57;;;;;;;15.85;5.28;;;;;;;;;;5054182;28;20474;-67
2020/12/21 02:57:24;;;;;;;13.00;4.43;;;;;;;;;;5054770;28;20099;-67
2020/12/21 02:59:51;;;;;;;9.75;4.93;;;;;;;;;;5054141;28;20493;-68
2020/12/21 03:02:17;;;;;;;9.05;4.28;;;;;;;;;;5054539;28;20037;-67
2020/12/21 03:04:43;;;;;;;14.68;4.88;;;;;;;;;;5054139;28;20090;-68
2020/12/21 03:07:09;;;;;;;12.88;4.88;;;;;;;;;;5053993;28;20107;-68
2020/12/21 03:09:36;;;;;;;13.55;5.32;;;;;;;;;;5052543;28;20033;-67
2020/12/21 03:12:02;;;;;;;11.70;4.50;;;11.00;63.00;;;;;;5054140;28;20053;-67
2020/12/21 03:14:29;;;;;;;9.68;4.25;;;;;;;;;;5052830;28;20029;-67
2020/12/21 03:16:55;;;;;;;12.73;4.68;;;;;;;;;;5053923;28;20037;-68
2020/12/21 03:19:21;;;;;;;17.98;5.30;;;;;;;;;;5052638;28;20194;-70
2020/12/21 03:21:47;;;;;;;8.75;3.95;;;;;;;;;;5053850;28;20028;-67
2020/12/21 03:24:13;;;;;;;11.85;5.38;;;;;;;;;;5053678;28;20545;-67
2020/12/21 03:26:40;;;;;;;10.77;4.22;;;;;;;;;;5053534;28;20390;-67
2020/12/21 03:29:06;;;;;;;9.40;4.00;;;;;;;;;;5053751;28;20029;-68
2020/12/21 03:31:32;;;;;;;12.38;4.82;;;;;;;;;;5053122;28;20159;-67
2020/12/21 03:33:58;;;;;;;19.35;5.05;;;;;;;;;;5053548;28;20020;-69
2020/12/21 03:36:25;;;;;;;19.08;4.93;;;;;;;;;;5053493;28;20032;-69
2020/12/21 03:38:51;;;;;;;13.48;4.57;;;;;;;;;;5053424;28;20029;-68
2020/12/21 03:41:17;;;;;;;19.13;4.28;;;;;;;;;;5065131;28;20024;-68
2020/12/21 03:43:43;;;;;;;17.95;5.05;;;;;;;;;;5058398;28;20102;-67
2020/12/21 03:46:10;;;;;;;16.00;4.40;;;;;;;;;;5053469;28;20025;-68
2020/12/21 03:48:36;;;;;;;13.60;4.25;;;;;;;;;;5052973;28;20179;-69
2020/12/21 03:51:02;;;;;;;21.63;5.40;;;;;;;;;;5051382;28;20045;-67
2020/12/21 03:53:28;;;;;;;12.27;4.13;;;;;;;;;;5053009;28;20044;-68
2020/12/21 03:55:55;;;;;;;34.22;4.43;;;;;;;;;;5053456;28;20029;-69
2020/12/21 03:58:21;;;;;;;9.60;4.20;;;;;;;;;;5053289;28;20029;-65
2020/12/21 04:00:47;;;;;;;14.68;4.55;;;;;;;;;;5053388;28;20037;-67
2020/12/21 04:03:13;;;;;;;14.10;4.40;;;;;;;;;;5053375;28;20083;-67
2020/12/21 04:05:39;;;;;;;17.17;4.20;;;;;;;;;;5053116;28;20036;-67
2020/12/21 04:08:06;;;;;;;9.23;4.32;;;;;;;;;;5052849;28;20025;-66
2020/12/21 04:10:32;;;;;;;12.80;4.15;;;;;;;;;;5052769;28;20609;-68
2020/12/21 04:12:58;;;;;;;14.00;4.32;;;;;;;;;;5052653;28;20171;-68
2020/12/21 04:15:24;;;;;;;9.85;4.10;;;;;;;;;;5053023;28;20037;-67
2020/12/21 04:17:51;;;;;;;;;;;10.80;62.80;;;;;;5052990;28;20124;-67
2020/12/21 04:20:17;;;;;;;13.82;4.40;;;;;;;;;;5053037;28;20046;-68
2020/12/21 04:22:43;;;;;;;16.75;4.03;;;;;;;;;;5053425;28;20032;-65
2020/12/21 04:25:09;;;;;;;8.90;3.90;;;;;;;;;;5053128;28;20048;-66
2020/12/21 04:27:36;;;;;;;15.00;4.70;;;;;;;;;;5052809;28;20032;-66
2020/12/21 04:30:02;;;;;;;10.75;4.32;;;;;;;;;;5052487;28;20024;-67
2020/12/21 04:32:28;;;;;;;17.48;4.75;;;;;;;;;;5052890;28;20037;-68
2020/12/21 04:34:55;;;;;;;21.55;5.28;;;;;;;;;;5052174;28;20033;-67
2020/12/21 04:37:21;;;;;;;18.08;4.63;;;;;;;;;;5052217;28;20029;-68
2020/12/21 04:39:47;;;;;;;14.90;4.35;;;;;;;;;;5052422;28;20033;-68
2020/12/21 04:42:13;;;;;;;17.67;4.10;;;;;;;;;;5051420;28;20028;-67
2020/12/21 04:44:41;;;;;;;9.15;4.13;;;10.50;64.00;;;;;;5052240;28;20035;-67
2020/12/21 04:47:07;;;;;;;10.88;3.83;;;;;;;;;;5052060;28;20564;-68
2020/12/21 04:49:34;;;;;;;12.63;4.55;;;10.80;63.70;;;;;;5052206;28;20029;-67
2020/12/21 04:52:03;;;;;;;;;;;10.70;64.10;;;;;;5052532;28;20033;-68
2020/12/21 04:54:30;;;;;;;8.55;3.47;;;;;;;;;;5051556;28;19909;-68
2020/12/21 04:56:59;;;;;;;6.85;3.60;;;10.80;63.50;;;;;;5052185;28;20025;-66
2020/12/21 04:59:25;;;;;;;8.07;4.22;;;;;;;;;;5052017;28;20040;-70
2020/12/21 05:01:54;;;;;;;13.38;4.47;;;;;;;;;;5052131;28;20040;-67
2020/12/21 05:04:21;;;;;;;15.93;4.30;;;;;;;;;;5051544;28;20040;-69
2020/12/21 05:06:56;;;;;;;12.85;4.35;;;10.90;63.00;;;;;;5050335;28;20048;-68
2020/12/21 05:09:24;;;;;;;20.65;4.10;;;11.20;62.90;;;;;;5051545;28;20040;-68
2020/12/21 05:11:57;;;;;;;13.25;3.63;;;11.10;62.90;;;;;;5051809;28;20045;-66
2020/12/21 05:14:31;;;;;;;23.40;4.70;;;11.10;62.90;;;;;;5052930;28;20054;-65
2020/12/21 05:17:12;;;;;;;15.00;4.38;;;11.00;63.10;;;;;;5051929;28;20025;-65
2020/12/21 05:19:39;;;;;;;24.88;5.07;;;10.90;63.50;;;;;;5051437;28;20028;-64
2020/12/21 05:22:10;;;;;;;14.27;4.32;;;11.00;63.30;;;;;;5051642;28;20115;-66
2020/12/21 05:24:37;;;;;;;12.85;4.13;;;;;;;;;;5051215;28;20036;-65
2020/12/21 05:27:16;;;;;;;15.90;4.47;;;10.90;63.70;;;;;;5051734;28;20082;-64
2020/12/21 05:29:42;;;;;;;12.10;4.53;;;;;;;;;;5050772;28;20141;-66
2020/12/21 05:32:18;;;;;;;10.38;4.40;;;10.90;63.70;;;;;;5051069;28;20093;-66
2020/12/21 05:34:44;;;;;;;18.40;4.40;;;;;;;;;;5051592;28;20100;-64
2020/12/21 05:37:18;;;;;;;13.65;4.45;;;11.10;62.80;;;;;;5051126;28;20017;-66
2020/12/21 05:39:53;;;;;;;20.15;4.68;;;11.00;63.30;;;;;;5051967;28;20071;-65
2020/12/21 05:42:19;;;;;;;14.10;4.40;;;;;;;;;;5051294;28;20035;-66
2020/12/21 05:45:11;;;;;;;14.02;3.85;;;11.10;63.00;;;;;;5049675;28;20032;-64
2020/12/21 05:47:38;;;;;;;12.63;4.28;;;;;;;;;;5034093;28;20063;-65
2020/12/21 05:50:06;;;;;;;11.98;3.75;;;11.30;62.30;;;;;;5051045;28;20167;-65
2020/12/21 05:52:34;;;;;;;15.43;4.20;;;11.40;62.20;;;;;;5050117;28;20029;-63
2020/12/21 05:55:10;;;;;;;13.63;4.53;;;11.40;62.20;;;;;;5050199;28;20040;-65
2020/12/21 05:57:37;;;;;;;9.20;4.17;;;11.40;62.00;;;;;;5050591;28;20021;-64
2020/12/21 06:00:10;;;;;;;17.15;4.10;;;11.40;61.90;;;;;;5051077;28;20029;-65
2020/12/21 06:02:37;;;;;;;13.52;4.28;;;;;;;;;;5049961;28;20036;-64
2020/12/21 06:05:10;;;;;;;14.93;4.07;;;11.40;61.80;;;;;;5050860;28;20534;-65
2020/12/21 06:07:37;;;;;;;10.23;4.00;;;11.50;61.90;;;;;;5051469;28;20108;-65
2020/12/21 06:10:08;;;;;;;9.63;4.05;;;11.50;61.70;;;;;;5050828;28;20055;-67
2020/12/21 06:12:45;;;;;;;11.25;3.92;;;11.50;61.50;;;;;;5049976;28;20462;-64
2020/12/21 06:15:15;;;;;;;10.27;3.90;;;11.50;61.80;;;;;;5038995;28;20036;-64
2020/12/21 06:17:41;;;;;;;15.48;4.82;;;;;;;;;;5050645;28;20037;-64
2020/12/21 06:20:10;;;;;;;12.88;4.18;;;11.40;61.60;;;;;;5050690;28;20029;-65
2020/12/21 06:22:37;;;;;;;13.10;4.70;;;11.50;61.50;;;;;;5050667;28;20021;-65
2020/12/21 06:25:05;;;;;;;15.45;4.30;;;11.50;61.30;;;;;;5050067;28;20021;-66
2020/12/21 06:27:41;;;;;;;14.68;3.92;;;11.50;61.20;;;;;;5050567;28;20044;-65
2020/12/21 06:30:10;;;;;;;22.67;4.47;;;11.40;61.70;;;;;;5050183;28;20025;-66
2020/12/21 06:32:37;;;;;;;10.93;4.35;;;11.40;62.00;;;;;;5050386;28;20045;-66
2020/12/21 06:35:16;;;;;;;13.27;4.95;;;11.60;61.80;;;;;;5050790;28;20040;-65
2020/12/21 06:37:42;;;;;;;15.00;4.70;;;;;;;;;;5036658;28;20072;-66
2020/12/21 06:40:08;;;;;;;15.48;4.82;;;;;;;;;;5049228;28;20037;-64
2020/12/21 06:42:35;;;;;;;13.13;4.30;;;;;;;;;;5049205;28;20037;-65
2020/12/21 06:45:11;;;;;;;16.85;4.35;;;11.50;61.60;;;;;;5050084;28;20503;-66
2020/12/21 06:47:37;;;;;;;14.57;4.72;;;;;;;;;;5050301;28;20108;-65
2020/12/21 06:50:04;;;;;;;31.55;5.03;;;;;;;;;;5050247;28;20040;-64
2020/12/21 06:52:31;;;;;;;11.63;4.13;;;;;;;;;;5050117;28;20032;-67
2020/12/21 06:54:58;;;;;;;16.25;4.47;;;;;;;;;;5050141;28;20120;-64
2020/12/21 06:57:24;;;;;;;11.98;4.07;;;;;;;;;;5050174;28;20502;-64
2020/12/21 06:59:56;;;;;;;13.25;4.35;;;11.30;62.60;;;;;;5050142;28;20029;-64
2020/12/21 07:02:22;;;;;;;21.95;5.28;;;;;;;;;;5048719;28;20476;-65
2020/12/21 07:04:48;;;;;;;16.55;4.47;;;;;;;;;;5050671;28;20036;-64
2020/12/21 07:07:14;;;;;;;14.15;4.68;;;;;;;;;;5053882;28;20060;-64
2020/12/21 07:09:41;;;;;;;8.98;4.40;;;;;;;;;;5053957;28;20041;-66
2020/12/21 07:12:08;;;;;;;16.98;4.30;;;11.50;62.20;;;;;;5053746;28;20052;-66
2020/12/21 07:14:40;;;;;;;10.82;4.20;;;11.60;62.10;;;;;;5053708;28;20095;-63
2020/12/21 07:17:08;;;;;;;12.15;4.47;;;11.60;61.70;;;;;;5053426;28;20039;-64
2020/12/21 07:19:35;;;;;;;11.52;4.63;;;11.60;62.10;;;;;;5052511;28;20037;-63
2020/12/21 07:22:03;;;;;;;14.38;4.30;;;11.70;62.00;;;;;;5052449;28;20752;-65
2020/12/21 07:24:29;;;;;;;21.73;5.47;;;;;;;;;;5053556;28;20036;-65
2020/12/21 07:26:55;;;;;;;15.60;5.00;;;;;;;;;;5053368;28;20067;-64
2020/12/21 07:29:22;;;;;;;10.77;4.72;;;;;;;;;;5053418;28;20029;-65
2020/12/21 07:31:49;;;;;;;20.58;4.55;;;11.50;62.60;;;;;;5053080;28;20062;-66
2020/12/21 07:34:15;;;;;;;;;;;11.50;63.10;;;;;;5053974;28;20029;-65
2020/12/21 07:36:41;;;;;;;12.05;4.53;;;;;;;;;;5053236;28;19913;-65
2020/12/21 07:39:16;;;;;;;19.15;4.40;;;11.90;61.40;;;;;;5053716;28;20225;-64
2020/12/21 07:41:45;;;;;;;10.32;4.20;;;11.90;61.30;;;;;;5053474;28;20091;-64
2020/12/21 07:44:24;;;;;;;7.97;4.20;;;12.00;61.10;;;;;;5051610;28;20055;-64
2020/12/21 07:47:05;;;;;;;17.13;4.50;;;11.90;61.20;;;;;;5051341;28;20057;-66
2020/12/21 07:49:36;;;;;;;16.35;4.45;;;11.90;61.30;;;;;;5052874;28;20025;-65
2020/12/21 07:52:04;;;;;;;16.75;4.63;;;11.80;61.40;;;;;;5053051;28;20051;-65
2020/12/21 07:54:48;;;;;;;16.10;4.40;;;11.90;61.40;;;;;;5051290;28;20033;-65
2020/12/21 07:57:18;;;;;;;10.48;4.57;;;11.90;61.50;;;;;;5052448;28;20029;-65
2020/12/21 07:59:57;;;;;;;13.07;4.43;;;11.80;61.50;;;;;;5052474;28;20561;-65
2020/12/21 08:02:25;;;;;;;24.20;5.50;;;11.90;61.70;;;;;;5052505;28;20420;-67
2020/12/21 08:04:51;;;;;;;13.07;4.15;;;;;;;;;;5052927;28;20027;-65
2020/12/21 08:07:17;;;;;;;15.90;4.82;;;;;;;;;;5053452;28;20475;-65
2020/12/21 08:09:44;;;;;;;10.43;3.80;;;;;;;;;;5052494;28;20032;-65
2020/12/21 08:12:12;;;;;;;12.82;4.22;;;11.90;61.80;;;;;;5051426;28;20125;-63
2020/12/21 08:14:38;;;;;;;10.20;4.53;;;;;;;;;;5052394;28;20025;-66
2020/12/21 08:17:15;;;;;;;10.63;4.00;;;11.90;62.10;;;;;;5052175;28;20033;-65
2020/12/21 08:19:55;;;;;;;13.57;4.55;;;12.10;61.80;;;;;;5049662;28;20079;-65
2020/12/21 08:22:22;;;;;;;14.30;4.35;;;12.20;61.60;;;;;;5051717;28;20028;-64
2020/12/21 08:25:11;;;;;;;9.85;4.30;;;12.20;61.60;;;;;;5052363;28;20074;-64
2020/12/21 08:27:38;;;;;;;18.52;4.28;;;;;;;;;;5051324;28;20024;-64
2020/12/21 08:30:16;;;;;;;15.02;4.22;;;12.20;61.60;;;;;;5051868;28;20033;-64
2020/12/21 08:32:43;;;;;;;10.77;3.80;;;;;;;;;;5051836;28;20128;-67
2020/12/21 08:35:09;;;;;;;9.43;4.00;;;;;;;;;;5050237;28;20479;-65
2020/12/21 08:37:37;;;;;;;10.07;4.20;;;12.20;61.60;;;;;;5051543;28;20541;-65
2020/12/21 08:40:16;;;;;;;11.75;3.83;;;12.30;61.60;;;;;;5051468;28;20075;-65
2020/12/21 08:42:43;;;;;;;16.33;4.93;;;12.30;62.00;;;;;;5051583;28;20037;-64
2020/12/21 08:45:09;;;;;;;9.43;3.85;;;;;;;;;;5051691;28;20033;-66
2020/12/21 08:47:36;;;;;;;10.95;4.13;;;12.30;61.30;;;;;;5051404;28;20033;-65
2020/12/21 08:50:03;;;;;;;;;;;12.30;61.70;;;;;;5051855;28;20028;-64
2020/12/21 08:52:31;;;;;;;8.50;3.95;;;;;;;;;;5051104;28;19917;-64
2020/12/21 08:54:57;;;;;;;13.48;4.38;;;;;;;;;;5051600;28;20036;-64
2020/12/21 08:57:23;;;;;;;14.80;4.07;;;;;;;;;;5048854;28;20086;-64
2020/12/21 08:59:49;;;;;;;13.95;4.15;;;;;;;;;;5051700;28;20029;-64
2020/12/21 09:02:16;;;;;;;10.93;4.50;;;;;;;;;;5050948;28;20082;-64
2020/12/21 09:04:42;;;;;;;8.80;4.20;;;;;;;;;;5038281;28;20041;-64
2020/12/21 09:07:08;;;;;;;10.88;3.72;;;;;;;;;;5050988;28;20035;-64
2020/12/21 09:09:34;;;;;;;6.97;4.07;;;;;;;;;;5051793;28;20062;-66
2020/12/21 09:12:00;;;;;;;11.77;5.22;;;;;;;;;;5051081;28;20072;-63
2020/12/21 09:14:28;;;;;;;11.50;4.38;;;;;;;;;;5051350;28;20087;-64
2020/12/21 09:16:54;;;;;;;21.00;4.68;;;;;;;;;;5051066;28;20040;-63
2020/12/21 09:19:20;;;;;;;15.30;4.72;;;;;;;;;;5051146;28;20033;-64
2020/12/21 09:21:47;;;;;;;7.53;3.67;;;;;;;;;;5051638;28;20086;-68
2020/12/21 09:24:13;;;;;;;12.55;3.63;;;;;;;;;;5051168;28;20506;-67
2020/12/21 09:26:39;;;;;;;11.93;4.07;;;;;;;;;;5050714;28;20051;-68
2020/12/21 09:29:06;;;;;;;5.45;3.53;;;;;;;;;;5049857;28;20021;-67
2020/12/21 09:31:32;;;;;;;10.57;4.65;;;;;;;;;;5045302;28;20037;-67
2020/12/21 09:33:58;;;;;;;13.80;4.03;;;;;;;;;;5049742;28;20433;-68
2020/12/21 09:36:27;;;;;;;10.80;4.47;;;;;;;;;;5048974;28;20029;-67
2020/12/21 09:38:53;;;;;;;15.63;3.80;;;;;;;;;;5048866;28;20032;-66
2020/12/21 09:41:20;;;;;;;8.55;3.80;;;12.50;62.80;;;;;;5048706;28;20423;-67
2020/12/21 09:43:48;;;;;;;10.00;3.70;;;12.60;62.60;;;;;;5044808;28;20456;-66
2020/12/21 09:46:22;;;;;;;13.52;4.38;;;12.60;62.60;;;;;;5047148;28;20026;-66
2020/12/21 09:48:49;;;;;;;11.45;4.25;;;12.80;62.60;;;;;;5036766;28;20045;-67
2020/12/21 09:51:16;;;;;;;12.90;4.55;;;;;;;;;;5050196;28;20025;-69
2020/12/21 09:53:42;;;;;;;6.68;3.78;;;;;;;;;;5049904;28;20067;-66
2020/12/21 09:56:09;;;;;;;9.55;3.80;;;13.00;61.70;;;;;;5048547;28;20021;-67
2020/12/21 09:58:36;;;;;;;8.18;3.85;;;;;;;;;;5049412;28;20029;-68
2020/12/21 10:01:02;;;;;;;9.25;4.40;;;;;;;;;;5049592;28;20036;-68
2020/12/21 10:03:28;;;;;;;14.98;4.03;;;;;;;;;;5050539;28;20071;-67
2020/12/21 10:05:55;;;;;;;19.95;4.63;;;;;;;;;;5049974;28;20021;-68
2020/12/21 10:08:21;;;;;;;;;;;13.20;61.40;;;;;;5050909;28;20035;-68
2020/12/21 10:10:48;;;;;;;9.50;4.07;;;13.40;61.20;;;;;;5049875;28;20007;-67
2020/12/21 10:13:14;;;;;;;14.63;4.38;;;;;;;;;;5048540;28;20372;-66
2020/12/21 10:15:41;;;;;;;4.75;3.40;;;;;;;;;;5048935;28;20208;-66
2020/12/21 10:18:07;;;;;;;10.82;4.30;;;;;;;;;;5049938;28;20041;-67
2020/12/21 10:20:34;;;;;;;12.35;3.95;;;;;;;;;;5048969;28;20033;-67
2020/12/21 10:23:00;;;;;;;9.77;4.15;;;;;;;;;;5049029;28;20029;-67
2020/12/21 10:25:26;;;;;;;15.00;3.88;;;;;;;;;;5050238;28;20104;-68
2020/12/21 10:27:53;;;;;;;18.15;4.15;;;;;;;;;;5049001;28;20163;-69
2020/12/21 10:30:19;;;;;;;13.13;4.30;;;;;;;;;;5050150;28;20029;-68
2020/12/21 10:32:45;;;;;;;12.32;4.18;;;;;;;;;;5050384;28;20395;-69
2020/12/21 10:35:12;;;;;;;8.45;4.15;;;;;;;;;;5049900;28;20572;-69
2020/12/21 10:37:38;;;;;;;11.65;4.88;;;;;;;;;;5048417;28;20040;-71
2020/12/21 10:40:05;;;;;;;9.95;4.28;;;13.30;61.90;;;;;;5050846;28;20037;-69
2020/12/21 10:42:32;;;;;;;10.73;3.70;;;;;;;;;;5054067;28;20124;-69
2020/12/21 10:44:58;;;;;;;13.63;3.92;;;;;;;;;;5053518;28;20052;-68
2020/12/21 10:47:24;;;;;;;9.68;3.60;;;;;;;;;;5050744;28;20509;-68
2020/12/21 10:49:50;;;;;;;11.25;3.58;;;;;;;;;;5054120;28;20106;-68
2020/12/21 10:52:17;;;;;;;12.05;4.10;;;;;;;;;;5053158;28;20438;-66
2020/12/21 10:54:43;;;;;;;12.63;4.00;;;;;;;;;;5052544;28;20136;-68
2020/12/21 10:57:09;;;;;;;11.65;4.00;;;;;;;;;;5052627;28;20023;-69
2020/12/21 10:59:35;;;;;;;10.65;3.80;;;;;;;;;;5053686;28;20039;-69
2020/12/21 11:02:02;;;;;;;11.55;3.75;;;;;;;;;;5053389;28;20063;-70
2020/12/21 11:04:28;;;;;;;10.48;4.18;;;;;;;;;;5053376;28;20475;-68
2020/12/21 11:06:55;;;;;;;15.57;4.18;;;13.30;63.20;;;;;;5053645;28;20029;-68
2020/12/21 11:09:22;;;;;;;11.57;4.22;;;;;;;;;;5051587;28;20025;-69
2020/12/21 11:11:48;;;;;;;9.93;3.78;;;;;;;;;;5052774;28;20053;-68
2020/12/21 11:14:14;;;;;;;9.98;4.00;;;;;;;;;;5052265;28;20041;-69
2020/12/21 11:16:40;;;;;;;10.95;4.20;;;;;;;;;;5052200;28;20025;-69
2020/12/21 11:19:07;;;;;;;11.35;3.90;;;;;;;;;;5052100;28;20021;-69
2020/12/21 11:21:36;;;;;;;19.08;4.70;;;13.20;63.50;;;;;;5048421;28;20483;-70
2020/12/21 11:24:03;;;;;;;11.98;4.43;;;13.20;63.40;;;;;;5051962;28;20049;-69
2020/12/21 11:26:30;;;;;;;9.88;4.30;;;;;;;;;;5055075;28;20032;-70
2020/12/21 11:28:57;;;;;;;12.30;4.43;;;;;;;;;;5044773;28;20367;-68
2020/12/21 11:31:23;;;;;;;10.82;4.35;;;;;;;;;;5044439;28;20033;-69
2020/12/21 11:33:49;;;;;;;8.48;4.03;;;;;;;;;;5051096;28;20116;-69
2020/12/21 11:36:16;;;;;;;12.43;4.15;;;;;;;;;;5047053;28;20127;-68
2020/12/21 11:38:42;;;;;;;12.73;4.32;;;;;;;;;;5052120;28;20043;-70
2020/12/21 11:41:09;;;;;;;9.15;3.75;;;;;;;;;;5052144;28;20499;-71
2020/12/21 11:43:35;;;;;;;13.80;5.07;;;;;;;;;;5049168;28;20025;-70
2020/12/21 11:46:01;;;;;;;15.70;4.57;;;;;;;;;;5051800;28;20037;-70
2020/12/21 11:48:27;;;;;;;7.82;4.13;;;;;;;;;;5051356;28;20442;-70
2020/12/21 11:50:54;;;;;;;10.63;4.22;;;;;;;;;;5036282;28;20036;-71
2020/12/21 11:53:19;;;;;;;;;;;13.10;64.30;;;;;;4697626;28;10000306;-69
2020/12/21 11:55:46;;;;;;;10.43;4.50;;;13.20;63.80;;;;;;5042719;28;19913;-70
2020/12/21 11:58:12;;;;;;;;;;;13.20;64.30;;;;;;5050535;28;20367;-70
2020/12/21 12:00:38;;;;;;;10.65;4.22;;;;;;;;;;5047843;28;19909;-71
2020/12/21 12:03:05;;;;;;;12.02;4.63;;;;;;;;;;5049656;28;20037;-72
2020/12/21 12:05:31;;;;;;;12.65;4.82;;;;;;;;;;5041223;28;20039;-73
2020/12/21 12:07:58;;;;;;;12.32;4.25;;;;;;;;;;5050083;28;20394;-70
2020/12/21 12:10:24;;;;;;;15.32;5.00;;;;;;;;;;5050462;28;20025;-72
2020/12/21 12:12:50;;;;;;;9.45;4.88;;;;;;;;;;5048686;28;20506;-72
2020/12/21 12:15:16;;;;;;;12.32;5.03;;;;;;;;;;5051406;28;20766;-70
2020/12/21 12:17:42;;;;;;;11.57;4.85;;;;;;;;;;5049634;28;20582;-70
2020/12/21 12:20:09;;;;;;;14.40;5.40;;;;;;;;;;5047637;28;20472;-70
2020/12/21 12:22:35;;;;;;;18.55;5.65;;;;;;;;;;5048795;28;20028;-71
2020/12/21 12:25:02;;;;;;;12.93;4.95;;;;;;;;;;5050008;28;20017;-71
2020/12/21 12:27:28;;;;;;;;;;;13.30;64.00;;;;;;5050370;28;20086;-74
2020/12/21 12:29:54;;;;;;;12.57;4.97;;;;;;;;;;5049223;28;20590;-73
2020/12/21 12:32:21;;;;;;;17.10;5.22;;;;;;;;;;5047167;28;20302;-70
2020/12/21 12:34:47;;;;;;;12.40;4.80;;;;;;;;;;4698909;28;10000311;-70
2020/12/21 12:37:14;;;;;;;12.68;4.40;;;;;;;;;;5049209;28;20430;-71
2020/12/21 12:39:40;;;;;;;11.15;5.15;;;;;;;;;;5049994;28;20033;-69
2020/12/21 12:42:06;;;;;;;11.88;4.95;;;;;;;;;;5049650;28;20083;-70
2020/12/21 12:44:32;;;;;;;12.38;4.72;;;;;;;;;;5050001;28;20037;-69
2020/12/21 12:46:59;;;;;;;14.57;5.13;;;;;;;;;;5049064;28;20037;-69
2020/12/21 12:49:25;;;;;;;14.10;4.82;;;;;;;;;;5050015;28;20025;-70
2020/12/21 12:51:54;;;;;;;12.50;4.78;;;13.00;66.10;;;;;;5049348;28;20518;-69
2020/12/21 12:54:23;;;;;;;12.23;4.88;;;;;;;;;;5046455;28;20025;-71
2020/12/21 12:56:49;;;;;;;15.27;5.38;;;;;;;;;;5048647;28;20495;-69
2020/12/21 12:59:16;;;;;;;11.73;5.38;;;;;;;;;;5048562;28;20101;-70
2020/12/21 13:01:42;;;;;;;11.63;4.97;;;;;;;;;;5048304;28;20040;-70
2020/12/21 13:04:08;;;;;;;11.43;5.15;;;;;;;;;;5048484;28;20068;-68
2020/12/21 13:06:35;;;;;;;10.25;4.70;;;;;;;;;;5049421;28;20040;-71
2020/12/21 13:09:01;;;;;;;13.25;4.95;;;;;;;;;;5049183;28;20033;-70
2020/12/21 13:11:27;;;;;;;13.30;4.95;;;;;;;;;;5047298;28;20060;-72
2020/12/21 13:13:53;;;;;;;12.98;5.00;;;;;;;;;;5048578;28;20033;-72
2020/12/21 13:16:20;;;;;;;9.90;4.40;;;;;;;;;;5040520;28;20045;-68
2020/12/21 13:18:46;;;;;;;11.48;4.47;;;;;;;;;;5048162;28;20090;-69
2020/12/21 13:21:20;;;;;;;15.60;4.55;;;12.70;66.70;;;;;;5042359;28;20514;-70
2020/12/21 13:23:46;;;;;;;6.97;4.00;;;;;;;;;;5033661;28;20025;-69
2020/12/21 13:26:19;;;;;;;9.02;3.75;;;12.70;66.80;;;;;;5031757;28;20049;-68
2020/12/21 13:28:46;;;;;;;11.43;3.83;;;12.80;67.10;;;;;;5036490;28;20071;-69
2020/12/21 13:31:12;;;;;;;;;;;12.60;67.50;;;;;;5048520;28;20032;-68
2020/12/21 13:33:38;;;;;;;7.85;3.60;;;;;;;;;;5046251;28;19924;-69
2020/12/21 13:36:05;;;;;;;8.93;4.15;;;;;;;;;;5049296;28;20406;-70
2020/12/21 13:38:36;;;;;;;8.43;3.65;;;;;;;;;;5042053;28;20036;-67
2020/12/21 13:41:02;;;;;;;10.15;3.25;;;;;;;;;;5047713;28;20035;-68
2020/12/21 13:43:29;;;;;;;7.00;3.30;;;;;;;;;;5027563;28;20083;-71
2020/12/21 13:45:55;;;;;;;8.13;3.22;;;;;;;;;;5040564;28;20037;-69
2020/12/21 13:48:21;;;;;;;8.43;3.50;;;;;;;;;;5039031;28;20056;-69
2020/12/21 13:50:47;;;;;;;4.47;2.92;;;;;;;;;;5042735;28;20414;-71
2020/12/21 13:53:14;;;;;;;4.38;3.00;;;;;;;;;;5036739;28;20059;-74
2020/12/21 13:55:40;;;;;;;4.80;2.80;;;;;;;;;;5036342;28;20486;-71
2020/12/21 13:58:06;;;;;;;6.63;3.30;;;;;;;;;;5051263;28;20081;-71
2020/12/21 14:00:32;;;;;;;3.95;2.72;;;;;;;;;;5044008;28;20120;-69